createdAt,value
2018-12-03T00:01:32.166Z,99049.18
2018-12-03T00:04:20.275Z,99040.28
2018-12-03T00:06:47.491Z,99045.68
2018-12-03T00:09:14.677Z,99048.53
2018-12-03T00:11:42.123Z,99053.21
2018-12-03T00:14:09.528Z,99042.77
2018-12-03T00:16:36.739Z,99038.14
2018-12-03T00:19:04.161Z,99044.42
2018-12-03T00:21:31.269Z,99043.10
2018-12-03T00:23:58.454Z,99046.76
2018-12-03T00:26:25.533Z,99045.57
2018-12-03T00:28:52.613Z,99046.83
2018-12-03T00:31:19.729Z,99047.27
2018-12-03T00:33:46.802Z,99045.57
2018-12-03T00:36:13.898Z,99041.30
2018-12-03T00:38:41.001Z,99044.66
2018-12-03T00:41:08.062Z,99036.64
2018-12-03T00:43:35.147Z,99026.42
2018-12-03T00:46:02.281Z,99043.50
2018-12-03T00:48:29.419Z,99039.73
2018-12-03T00:52:27.971Z,99033.97
2018-12-03T00:54:55.096Z,99038.96
2018-12-03T00:57:22.407Z,99040.39
2018-12-03T00:59:49.482Z,99035.88
2018-12-03T01:02:22.240Z,99031.20
2018-12-03T01:04:49.338Z,99031.67
2018-12-03T01:07:16.526Z,99034.12
2018-12-03T01:09:43.732Z,99031.61
2018-12-03T01:12:10.826Z,99031.61
2018-12-03T01:14:37.923Z,99029.91
2018-12-03T01:17:05.052Z,99034.19
2018-12-03T01:19:32.171Z,99042.46
2018-12-03T01:21:59.294Z,99039.98
2018-12-03T01:24:26.373Z,99039.55
2018-12-03T01:26:53.454Z,99040.77
2018-12-03T01:29:20.544Z,99035.38
2018-12-03T01:31:47.630Z,99031.61
2018-12-03T01:34:14.842Z,99037.34
2018-12-03T01:36:41.903Z,99033.16
2018-12-03T01:39:09.049Z,99034.93
2018-12-03T01:41:36.321Z,99033.34
2018-12-03T01:44:03.538Z,99028.20
2018-12-03T01:46:30.617Z,99029.16
2018-12-03T01:48:57.698Z,99026.69
2018-12-03T01:51:24.873Z,99029.50
2018-12-03T01:53:52.465Z,99031.71
2018-12-03T01:56:19.133Z,99029.94
2018-12-03T01:58:46.531Z,99025.84
2018-12-03T02:01:13.598Z,99026.28
2018-12-03T02:03:40.706Z,99019.97
2018-12-03T02:06:07.791Z,99023.63
2018-12-03T02:08:34.867Z,99023.19
2018-12-03T02:11:08.830Z,99022.34
2018-12-03T02:13:35.924Z,99024.07
2018-12-03T02:16:03.043Z,99016.95
2018-12-03T02:18:30.610Z,99018.50
2018-12-03T02:20:57.732Z,99024.48
2018-12-03T02:23:24.805Z,99020.30
2018-12-03T02:25:52.169Z,99017.31
2018-12-03T02:28:19.260Z,99025.70
2018-12-03T02:30:46.329Z,99017.90
2018-12-03T02:33:13.793Z,99009.92
2018-12-03T02:35:41.015Z,99009.66
2018-12-03T02:38:09.426Z,99001.23
2018-12-03T02:40:36.553Z,99000.83
2018-12-03T02:43:03.663Z,99001.68
2018-12-03T02:45:30.842Z,99001.34
2018-12-03T02:47:58.048Z,99001.68
2018-12-03T02:50:25.237Z,99003.04
2018-12-03T02:52:52.629Z,98992.96
2018-12-03T02:55:20.922Z,98998.83
2018-12-03T02:57:48.357Z,98999.71
2018-12-03T03:00:16.013Z,99002.70
2018-12-03T03:02:43.590Z,98997.75
2018-12-03T03:05:13.600Z,99000.63
2018-12-03T03:07:41.475Z,99002.77
2018-12-03T03:10:10.298Z,99004.80
2018-12-03T03:12:37.565Z,98994.35
2018-12-03T03:15:07.165Z,98996.42
2018-12-03T03:17:35.687Z,99006.06
2018-12-03T03:20:03.160Z,98991.88
2018-12-03T03:22:30.287Z,98990.05
2018-12-03T03:24:57.351Z,98990.14
2018-12-03T03:27:24.426Z,98998.83
2018-12-03T03:29:51.530Z,98994.14
2018-12-03T03:32:18.645Z,98990.83
2018-12-03T03:34:45.738Z,98987.05
2018-12-03T03:37:13.446Z,98988.20
2018-12-03T03:39:40.493Z,98986.11
2018-12-03T03:42:07.601Z,98980.67
2018-12-03T03:44:34.769Z,98980.75
2018-12-03T03:47:01.846Z,98979.42
2018-12-03T03:49:29.238Z,98980.23
2018-12-03T03:51:56.316Z,98984.92
2018-12-03T03:54:25.407Z,98987.94
2018-12-03T03:56:50.947Z,98987.43
2018-12-03T03:59:18.212Z,98982.41
2018-12-03T04:01:45.271Z,98970.59
2018-12-03T04:04:12.358Z,98973.95
2018-12-03T04:06:39.414Z,98978.27
2018-12-03T04:09:06.860Z,98978.74
2018-12-03T04:11:33.969Z,98980.78
2018-12-03T04:14:01.058Z,98982.41
2018-12-03T04:16:28.131Z,98972.80
2018-12-03T04:18:55.367Z,98977.42
2018-12-03T04:21:22.450Z,98974.06
2018-12-03T04:23:49.547Z,98967.34
2018-12-03T04:26:16.797Z,98968.19
2018-12-03T04:28:43.882Z,98966.02
2018-12-03T04:31:10.957Z,98962.77
2018-12-03T04:33:38.234Z,98957.39
2018-12-03T04:36:05.324Z,98950.41
2018-12-03T04:38:32.395Z,98945.28
2018-12-03T04:40:59.521Z,98943.58
2018-12-03T04:43:26.586Z,98954.41
2018-12-03T04:45:53.658Z,98954.88
2018-12-03T04:48:20.749Z,98952.47
2018-12-03T04:50:47.819Z,98949.08
2018-12-03T04:53:14.894Z,98943.28
2018-12-03T04:55:41.962Z,98948.33
2018-12-03T04:58:09.047Z,98940.80
2018-12-03T05:00:36.126Z,98945.95
2018-12-03T05:03:05.369Z,98946.90
2018-12-03T05:05:34.355Z,98943.13
2018-12-03T05:08:03.356Z,98937.77
2018-12-03T05:10:32.302Z,98940.28
2018-12-03T05:13:00.876Z,98939.09
2018-12-03T05:15:26.710Z,98941.22
2018-12-03T05:17:53.820Z,98938.78
2018-12-03T05:20:23.184Z,98932.13
2018-12-03T05:22:50.331Z,98941.35
2018-12-03T05:25:19.424Z,98926.28
2018-12-03T05:27:44.561Z,98926.34
2018-12-03T05:30:12.565Z,98928.45
2018-12-03T05:32:40.330Z,98919.66
2018-12-03T05:35:15.741Z,98922.14
2018-12-03T05:37:42.823Z,98911.30
2018-12-03T05:40:16.182Z,98902.07
2018-12-03T05:42:43.514Z,98903.83
2018-12-03T05:45:10.622Z,98902.98
2018-12-03T05:47:37.705Z,98897.14
2018-12-03T05:50:09.024Z,98898.83
2018-12-03T05:52:36.097Z,98906.28
2018-12-03T05:55:03.695Z,98908.88
2018-12-03T05:57:31.002Z,98917.27
2018-12-03T05:59:58.059Z,98910.52
2018-12-03T06:02:25.114Z,98908.53
2018-12-03T06:04:52.226Z,98906.44
2018-12-03T06:07:19.337Z,98908.16
2018-12-03T06:09:46.454Z,98908.63
2018-12-03T06:12:13.767Z,98905.30
2018-12-03T06:14:40.845Z,98907.00
2018-12-03T06:17:07.950Z,98897.64
2018-12-03T06:19:35.034Z,98908.63
2018-12-03T06:22:02.122Z,98905.30
2018-12-03T06:24:29.174Z,98905.74
2018-12-03T06:26:56.302Z,98913.25
2018-12-03T06:29:23.373Z,98914.06
2018-12-03T06:31:50.442Z,98910.20
2018-12-03T06:34:17.517Z,98909.80
2018-12-03T06:36:44.598Z,98908.88
2018-12-03T06:39:11.683Z,98909.80
2018-12-03T06:41:38.754Z,98915.55
2018-12-03T06:44:07.090Z,98910.05
2018-12-03T06:46:34.513Z,98913.38
2018-12-03T06:49:01.601Z,98922.30
2018-12-03T06:51:28.693Z,98915.45
2018-12-03T06:53:55.770Z,98918.50
2018-12-03T06:56:22.847Z,98917.11
2018-12-03T06:58:49.901Z,98914.91
2018-12-03T07:01:17.277Z,98928.89
2018-12-03T07:03:44.350Z,98927.53
2018-12-03T07:06:11.416Z,98931.37
2018-12-03T07:08:38.498Z,98932.43
2018-12-03T07:11:05.667Z,98926.12
2018-12-03T07:13:32.750Z,98935.25
2018-12-03T07:15:59.821Z,98923.61
2018-12-03T07:18:26.909Z,98931.48
2018-12-03T07:20:53.982Z,98933.18
2018-12-03T07:23:21.067Z,98939.84
2018-12-03T07:25:48.167Z,98941.53
2018-12-03T07:28:15.265Z,98943.61
2018-12-03T07:30:42.358Z,98948.56
2018-12-03T07:33:09.431Z,98946.83
2018-12-03T07:35:36.557Z,98949.82
2018-12-03T07:38:03.711Z,98958.52
2018-12-03T07:40:30.823Z,98970.32
2018-12-03T07:42:57.901Z,98979.17
2018-12-03T07:45:25.447Z,98977.52
2018-12-03T07:47:52.522Z,98975.31
2018-12-03T07:50:20.750Z,98972.83
2018-12-03T07:53:18.015Z,98990.69
2018-12-03T07:55:45.077Z,98989.43
2018-12-03T07:58:15.103Z,98988.11
2018-12-03T08:00:44.965Z,98991.53
2018-12-03T08:03:12.105Z,98988.41
2018-12-03T08:05:39.238Z,98988.28
2018-12-03T08:08:07.236Z,98992.69
2018-12-03T08:10:34.517Z,98993.94
2018-12-03T08:13:02.679Z,98992.21
2018-12-03T08:15:29.807Z,98979.59
2018-12-03T08:18:00.167Z,98982.81
2018-12-03T08:20:30.342Z,98987.48
2018-12-03T08:23:00.777Z,98995.70
2018-12-03T08:25:27.802Z,99006.32
2018-12-03T08:27:54.848Z,99000.89
2018-12-03T08:30:21.963Z,99006.39
2018-12-03T08:32:48.994Z,99001.95
2018-12-03T08:35:17.057Z,99014.13
2018-12-03T08:37:44.189Z,99009.92
2018-12-03T08:40:18.038Z,99011.52
2018-12-03T08:42:47.625Z,99012.06
2018-12-03T08:45:14.822Z,99018.72
2018-12-03T08:47:42.066Z,99019.16
2018-12-03T08:50:14.174Z,99019.16
2018-12-03T08:52:41.189Z,99020.81
2018-12-03T08:55:10.521Z,99020.86
2018-12-03T08:57:37.588Z,99018.72
2018-12-03T09:00:05.925Z,99015.39
2018-12-03T09:02:33.059Z,99017.80
2018-12-03T09:05:00.081Z,99027.44
2018-12-03T09:07:29.150Z,99035.03
2018-12-03T09:09:56.154Z,99020.41
2018-12-03T09:12:23.202Z,99030.89
2018-12-03T09:14:50.387Z,99024.25
2018-12-03T09:17:17.423Z,99025.60
2018-12-03T09:19:49.026Z,99019.36
2018-12-03T09:22:16.066Z,99020.17
2018-12-03T09:24:43.098Z,99016.00
2018-12-03T09:27:14.214Z,99019.66
2018-12-03T09:29:41.241Z,99022.11
2018-12-03T09:32:08.301Z,99013.89
2018-12-03T09:34:35.438Z,99014.78
2018-12-03T09:37:02.506Z,99013.77
2018-12-03T09:39:29.532Z,99018.86
2018-12-03T09:41:56.598Z,99019.36
2018-12-03T09:44:23.687Z,99022.45
2018-12-03T09:46:50.761Z,99025.91
2018-12-03T09:49:17.899Z,99032.27
2018-12-03T09:51:45.087Z,99032.73
2018-12-03T09:54:12.089Z,99026.97
2018-12-03T09:56:41.651Z,99029.85
2018-12-03T09:59:12.731Z,99020.24
2018-12-03T10:01:40.415Z,99025.20
2018-12-03T10:04:11.256Z,99017.73
2018-12-03T10:06:38.581Z,99017.02
2018-12-03T10:09:09.973Z,99007.78
2018-12-03T10:11:37.038Z,99010.30
2018-12-03T10:14:06.386Z,99007.41
2018-12-03T10:16:38.082Z,99010.39
2018-12-03T10:19:05.455Z,99008.55
2018-12-03T10:21:32.493Z,99018.19
2018-12-03T10:23:59.534Z,99007.48
2018-12-03T10:26:26.826Z,99010.72
2018-12-03T10:28:53.946Z,99008.95
2018-12-03T10:31:20.996Z,99007.70
2018-12-03T10:33:48.038Z,99012.22
2018-12-03T10:36:15.087Z,99001.31
2018-12-03T10:38:44.169Z,98998.47
2018-12-03T10:41:14.297Z,99008.86
2018-12-03T10:43:41.324Z,99006.41
2018-12-03T10:49:40.929Z,99030.11
2018-12-03T10:52:08.079Z,99024.37
2018-12-03T10:54:38.250Z,99020.59
2018-12-03T10:57:07.537Z,99027.63
2018-12-03T10:59:34.735Z,99030.46
2018-12-03T11:03:05.286Z,99024.42
2018-12-03T11:05:38.311Z,99031.05
2018-12-03T11:08:05.599Z,99032.00
2018-12-03T11:10:36.293Z,99028.77
2018-12-03T11:13:03.430Z,99027.36
2018-12-03T11:15:30.601Z,99031.57
2018-12-03T11:17:58.362Z,99027.27
2018-12-03T11:20:25.378Z,99027.70
2018-12-03T11:22:52.462Z,99025.19
2018-12-03T11:25:24.791Z,99028.62
2018-12-03T11:27:51.854Z,99021.96
2018-12-03T11:30:18.999Z,99022.34
2018-12-03T11:32:53.643Z,99020.98
2018-12-03T11:35:22.538Z,99025.56
2018-12-03T11:37:50.322Z,99019.53
2018-12-03T11:40:26.502Z,99022.14
2018-12-03T11:42:54.311Z,99017.86
2018-12-03T11:45:21.459Z,99029.67
2018-12-03T11:47:48.550Z,99021.30
2018-12-03T11:50:15.688Z,99023.16
2018-12-03T11:52:42.771Z,99022.31
2018-12-03T11:55:09.918Z,99029.58
2018-12-03T11:57:36.931Z,99032.59
2018-12-03T12:00:13.830Z,99026.22
2018-12-03T12:02:40.851Z,99029.75
2018-12-03T12:05:08.548Z,99021.12
2018-12-03T12:07:35.710Z,99034.47
2018-12-03T12:10:21.860Z,99028.29
2018-12-03T12:12:50.946Z,99029.88
2018-12-03T12:15:17.971Z,99027.19
2018-12-03T12:17:45.019Z,99023.63
2018-12-03T12:20:12.069Z,99024.98
2018-12-03T12:22:39.119Z,99022.69
2018-12-03T12:25:09.874Z,99018.85
2018-12-03T12:27:37.314Z,99017.77
2018-12-03T12:30:11.074Z,99018.17
2018-12-03T12:32:38.116Z,99017.73
2018-12-03T12:35:05.821Z,99020.58
2018-12-03T12:37:32.996Z,99017.63
2018-12-03T12:40:01.163Z,99017.19
2018-12-03T12:42:31.663Z,99010.70
2018-12-03T12:44:57.649Z,99006.63
2018-12-03T12:47:24.666Z,99012.27
2018-12-03T12:49:51.693Z,99022.55
2018-12-03T12:52:18.998Z,99013.42
2018-12-03T12:54:46.025Z,99024.02
2018-12-03T12:57:13.160Z,99029.03
2018-12-03T12:59:40.197Z,99029.69
2018-12-03T13:02:14.906Z,99021.70
2018-12-03T13:04:42.120Z,99027.23
2018-12-03T13:07:09.160Z,99025.06
2018-12-03T13:09:36.185Z,99026.73
2018-12-03T13:12:03.370Z,99026.39
2018-12-03T13:14:30.962Z,99028.70
2018-12-03T13:16:57.995Z,99029.11
2018-12-03T13:19:25.326Z,99028.16
2018-12-03T13:21:52.342Z,99029.00
2018-12-03T13:24:19.482Z,99025.17
2018-12-03T13:26:46.872Z,99022.72
2018-12-03T13:29:13.886Z,99016.38
2018-12-03T13:31:40.922Z,98980.95
2018-12-03T13:34:08.265Z,99016.48
2018-12-03T13:36:35.431Z,99010.30
2018-12-03T13:39:04.342Z,99013.22
2018-12-03T13:41:31.392Z,99009.11
2018-12-03T13:43:58.633Z,99011.15
2018-12-03T13:46:25.773Z,99022.55
2018-12-03T13:48:53.167Z,99010.74
2018-12-03T13:51:20.197Z,99025.47
2018-12-03T13:53:47.217Z,99023.47
2018-12-03T13:56:14.349Z,99005.07
2018-12-03T13:58:41.570Z,99011.76
2018-12-03T14:01:08.714Z,99018.34
2018-12-03T14:03:37.131Z,99023.57
2018-12-03T14:06:25.226Z,99014.37
2018-12-03T14:09:04.181Z,99024.31
2018-12-03T14:11:55.536Z,99031.34
2018-12-03T14:14:28.831Z,99028.49
2018-12-03T14:17:06.615Z,99026.32
2018-12-03T14:19:34.533Z,99016.38
2018-12-03T14:22:06.038Z,99009.89
2018-12-03T14:24:33.175Z,99019.16
2018-12-03T14:27:00.499Z,99021.91
2018-12-03T14:29:27.537Z,99016.34
2018-12-03T14:31:54.570Z,99015.42
2018-12-03T14:34:24.909Z,99024.12
2018-12-03T14:36:51.930Z,99013.08
2018-12-03T14:39:18.962Z,99013.05
2018-12-03T14:41:46.050Z,99020.78
2018-12-03T14:44:13.191Z,99018.50
2018-12-03T14:46:40.350Z,99025.52
2018-12-03T14:49:14.214Z,99027.45
2018-12-03T14:51:41.288Z,99035.42
2018-12-03T14:54:08.311Z,99039.52
2018-12-03T14:56:35.805Z,99035.31
2018-12-03T14:59:02.979Z,99040.34
2018-12-03T15:01:30.014Z,99037.02
2018-12-03T15:03:57.599Z,99041.19
2018-12-03T15:06:24.719Z,99047.83
2018-12-03T15:08:51.775Z,99036.98
2018-12-03T15:11:20.155Z,99029.45
2018-12-03T15:13:47.292Z,99036.36
2018-12-03T15:16:14.403Z,99036.02
2018-12-03T15:18:41.791Z,99038.42
2018-12-03T15:21:08.837Z,99035.03
2018-12-03T15:23:35.866Z,99030.86
2018-12-03T15:26:02.938Z,99026.61
2018-12-03T15:28:29.961Z,99031.59
2018-12-03T15:30:57.001Z,99025.22
2018-12-03T15:33:24.182Z,99023.11
2018-12-03T15:35:51.206Z,99028.88
2018-12-03T15:38:18.222Z,99025.52
2018-12-03T15:40:45.237Z,99030.42
2018-12-03T15:43:12.362Z,99038.69
2018-12-03T15:45:39.435Z,99046.59
2018-12-03T15:48:06.450Z,99051.53
2018-12-03T15:50:33.491Z,99049.54
2018-12-03T15:53:00.501Z,99049.43
2018-12-03T15:55:27.521Z,99046.59
2018-12-03T15:57:54.559Z,99044.81
2018-12-03T16:00:21.573Z,99048.43
2018-12-03T16:02:48.597Z,99042.78
2018-12-03T16:08:03.931Z,99027.54
2018-12-03T16:10:30.993Z,99033.27
2018-12-03T16:12:58.047Z,99027.23
2018-12-03T16:15:25.102Z,99032.36
2018-12-03T16:17:52.190Z,99037.12
2018-12-03T16:20:19.215Z,99036.98
2018-12-03T16:22:46.377Z,99037.79
2018-12-03T16:25:13.865Z,99053.00
2018-12-03T16:27:41.086Z,99056.10
2018-12-03T16:30:10.219Z,99062.08
2018-12-03T16:32:38.369Z,99053.63
2018-12-03T16:35:05.546Z,99057.38
2018-12-03T16:37:32.589Z,99056.06
2018-12-03T16:39:59.613Z,99062.34
2018-12-03T16:42:26.614Z,99063.67
2018-12-03T16:44:53.654Z,99061.30
2018-12-03T16:47:27.939Z,99065.18
2018-12-03T16:49:55.009Z,99071.79
2018-12-03T16:52:22.045Z,99061.67
2018-12-03T16:54:49.098Z,99069.20
2018-12-03T16:57:16.118Z,99068.28
2018-12-03T16:59:43.251Z,99070.09
2018-12-03T17:02:10.630Z,99077.86
2018-12-03T17:04:37.818Z,99074.99
2018-12-03T17:07:05.668Z,99078.69
2018-12-03T17:09:32.730Z,99083.48
2018-12-03T17:12:00.062Z,99086.55
2018-12-03T17:14:27.823Z,99084.85
2018-12-03T17:16:55.276Z,99084.00
2018-12-03T17:19:24.422Z,99084.73
2018-12-03T17:22:10.812Z,99087.13
2018-12-03T17:24:39.012Z,99088.50
2018-12-03T17:27:06.183Z,99083.55
2018-12-03T17:29:33.547Z,99084.41
2018-12-03T17:32:00.718Z,99084.00
2018-12-03T17:34:28.911Z,99081.89
2018-12-03T17:36:56.446Z,99088.05
2018-12-03T17:39:23.652Z,99084.25
2018-12-03T17:41:52.827Z,99090.85
2018-12-03T17:44:20.596Z,99084.91
2018-12-03T17:46:47.639Z,99083.66
2018-12-03T17:49:14.675Z,99082.66
2018-12-03T17:51:41.726Z,99079.63
2018-12-03T17:54:08.801Z,99073.41
2018-12-03T17:56:36.026Z,99062.49
2018-12-03T17:59:03.437Z,99061.13
2018-12-03T18:01:30.549Z,99061.86
2018-12-03T18:03:57.582Z,99058.83
2018-12-03T18:06:24.747Z,99060.66
2018-12-03T18:08:52.117Z,99065.72
2018-12-03T18:11:19.126Z,99064.06
2018-12-03T18:13:46.166Z,99065.72
2018-12-03T18:16:13.208Z,99071.75
2018-12-03T18:18:40.435Z,99069.64
2018-12-03T18:21:07.698Z,99073.48
2018-12-03T18:23:34.726Z,99076.64
2018-12-03T18:26:01.798Z,99073.94
2018-12-03T18:28:28.946Z,99077.13
2018-12-03T18:30:55.994Z,99072.80
2018-12-03T18:33:23.077Z,99070.23
2018-12-03T18:35:50.089Z,99074.84
2018-12-03T18:38:17.832Z,99072.23
2018-12-03T18:40:44.883Z,99070.98
2018-12-03T18:43:11.924Z,99068.55
2018-12-03T18:45:39.108Z,99072.91
2018-12-03T18:48:08.034Z,99069.48
2018-12-03T18:50:36.799Z,99067.78
2018-12-03T18:53:09.366Z,99069.03
2018-12-03T18:55:36.497Z,99055.58
2018-12-03T18:58:03.562Z,99064.70
2018-12-03T19:00:30.595Z,99062.36
2018-12-03T19:02:57.743Z,99062.52
2018-12-03T19:05:26.403Z,99065.31
2018-12-03T19:07:53.505Z,99063.53
2018-12-03T19:10:20.669Z,99065.59
2018-12-03T19:12:48.020Z,99065.59
2018-12-03T19:15:15.442Z,99064.33
2018-12-03T19:17:42.581Z,99064.02
2018-12-03T19:20:09.737Z,99055.41
2018-12-03T19:22:36.961Z,99054.39
2018-12-03T19:25:04.719Z,99053.19
2018-12-03T19:27:31.766Z,99052.50
2018-12-03T19:29:59.093Z,99053.48
2018-12-03T19:32:28.242Z,99053.55
2018-12-03T19:34:57.298Z,99056.50
2018-12-03T19:37:26.837Z,99061.19
2018-12-03T19:39:53.870Z,99052.87
2018-12-03T19:42:20.917Z,99060.51
2018-12-03T19:44:48.666Z,99059.58
2018-12-03T19:47:15.800Z,99060.43
2018-12-03T19:49:42.946Z,99063.34
2018-12-03T19:52:11.247Z,99066.30
2018-12-03T19:54:38.358Z,99057.24
2018-12-03T19:57:06.819Z,99058.98
2018-12-03T19:59:38.578Z,99061.64
2018-12-03T20:02:05.773Z,99060.79
2018-12-03T20:04:38.576Z,99060.99
2018-12-03T20:07:05.755Z,99066.56
2018-12-03T20:09:32.891Z,99072.55
2018-12-03T20:11:59.929Z,99068.34
2018-12-03T20:14:26.958Z,99064.45
2018-12-03T20:16:54.334Z,99062.92
2018-12-03T20:19:21.509Z,99068.45
2018-12-03T20:21:50.154Z,99067.77
2018-12-03T20:24:18.754Z,99068.09
2018-12-03T20:27:20.997Z,99066.03
2018-12-03T20:31:07.685Z,99053.23
2018-12-03T20:33:42.593Z,99060.11
2018-12-03T20:36:16.886Z,99067.92
2018-12-03T20:39:04.687Z,99062.70
2018-12-03T20:41:36.705Z,99065.56
2018-12-03T20:44:12.789Z,99067.67
2018-12-03T20:46:47.684Z,99066.52
2018-12-03T20:49:26.313Z,99070.59
2018-12-03T20:52:00.739Z,99080.72
2018-12-03T20:54:28.078Z,99085.92
2018-12-03T20:56:55.137Z,99083.84
2018-12-03T20:59:22.175Z,99085.90
2018-12-03T21:01:49.581Z,99094.08
2018-12-03T21:04:21.504Z,99094.98
2018-12-03T21:06:49.058Z,99092.16
2018-12-03T21:09:16.074Z,99093.69
2018-12-03T21:11:43.139Z,99095.73
2018-12-03T21:14:10.179Z,99093.36
2018-12-03T21:16:37.220Z,99094.53
2018-12-03T21:19:04.282Z,99091.58
2018-12-03T21:21:31.341Z,99097.12
2018-12-03T21:23:58.477Z,99103.03
2018-12-03T21:26:25.508Z,99123.22
2018-12-03T21:28:52.676Z,99121.10
2018-12-03T21:31:19.737Z,99136.20
2018-12-03T21:33:46.926Z,99140.57
2018-12-03T21:36:13.947Z,99138.29
2018-12-03T21:38:41.311Z,99150.52
2018-12-03T21:41:08.413Z,99154.27
2018-12-03T21:43:35.550Z,99156.66
2018-12-03T21:46:02.595Z,99162.65
2018-12-03T21:48:29.672Z,99164.12
2018-12-03T21:50:56.818Z,99170.07
2018-12-03T21:53:23.906Z,99183.67
2018-12-03T21:55:51.879Z,99193.22
2018-12-03T21:58:18.932Z,99202.31
2018-12-03T22:00:45.983Z,99211.55
2018-12-03T22:03:13.204Z,99218.34
2018-12-03T22:05:40.226Z,99231.56
2018-12-03T22:08:07.238Z,99230.88
2018-12-03T22:10:34.330Z,99241.59
2018-12-03T22:13:01.395Z,99244.84
2018-12-03T22:15:28.432Z,99251.25
2018-12-03T22:17:56.643Z,99249.84
2018-12-03T22:20:23.657Z,99255.30
2018-12-03T22:22:50.964Z,99263.13
2018-12-03T22:25:18.026Z,99274.97
2018-12-03T22:27:45.074Z,99269.35
2018-12-03T22:30:12.112Z,99274.02
2018-12-03T22:32:39.561Z,99290.63
2018-12-03T22:35:06.886Z,99285.94
2018-12-03T22:37:33.922Z,99296.47
2018-12-03T22:40:00.947Z,99307.53
2018-12-03T22:42:29.286Z,99312.13
2018-12-03T22:44:56.299Z,99314.39
2018-12-03T22:47:23.421Z,99329.02
2018-12-03T22:49:50.573Z,99329.91
2018-12-03T22:52:17.756Z,99341.16
2018-12-03T22:54:44.796Z,99340.55
2018-12-03T22:57:11.961Z,99347.34
2018-12-03T22:59:39.460Z,99354.16
2018-12-03T23:02:07.002Z,99351.48
2018-12-03T23:04:39.341Z,99347.28
2018-12-03T23:07:06.541Z,99351.48
2018-12-03T23:09:33.607Z,99362.30
2018-12-03T23:12:00.889Z,99369.50
2018-12-03T23:14:28.086Z,99376.52
2018-12-03T23:16:55.101Z,99379.45
2018-12-03T23:19:22.245Z,99390.23
2018-12-03T23:21:49.442Z,99390.30
2018-12-03T23:24:16.467Z,99396.30
2018-12-03T23:26:43.607Z,99391.91
2018-12-03T23:29:10.675Z,99401.42
2018-12-03T23:31:37.714Z,99400.38
2018-12-03T23:34:04.841Z,99398.93
2018-12-03T23:36:39.129Z,99413.05
2018-12-03T23:39:07.060Z,99411.66
2018-12-03T23:41:34.099Z,99416.86
2018-12-03T23:44:01.175Z,99415.97
2018-12-03T23:46:28.235Z,99421.55
2018-12-03T23:48:55.569Z,99420.09
2018-12-03T23:51:22.766Z,99425.91
2018-12-03T23:53:49.773Z,99434.84
2018-12-03T23:56:16.984Z,99435.70
2018-12-03T23:58:44.118Z,99442.28
